Time;durP1;ratioP1;P1;durP2;ratioP2;P2;SDS_P1;SDS_P2;PMS_P1;PMS_P2;Temp;Humidity;BMP_temperature;BMP_pressure;BME280_temperature;BME280_humidity;BME280_pressure;Samples;Min_cycle;Max_cycle;Signal;HPM_P1;HPM_P2
2021/02/13 00:00:18;;;;;;;1.7;1.3;;;;;;;-6.91;68.625;946.4128;;;;
2021/02/13 00:02:44;;;;;;;2.6;1.5;;;;;;;-6.77;69.44922;946.3935;;;;
2021/02/13 00:05:12;;;;;;;1.7;1.4;;;;;;;-6.9;70.78516;946.324;;;;
2021/02/13 00:07:38;;;;;;;3.6;1.7;;;;;;;-6.62;69.63574;946.3773;;;;
2021/02/13 00:10:07;;;;;;;3.1;1.2;;;;;;;-6.61;68.5625;946.3105;;;;
2021/02/13 00:12:34;;;;;;;2.3;1.6;;;;;;;-6.91;70.3877;946.4124;;;;
2021/02/13 00:15:06;;;;;;;1.6;1.2;;;;;;;-6.84;69.84082;946.426;;;;
2021/02/13 00:17:40;;;;;;;2.7;1.2;;;;;;;-6.94;69.65918;946.402;;;;
2021/02/13 00:20:06;;;;;;;1.3;1.1;;;;;;;-6.91;69.60938;946.4419;;;;
2021/02/13 00:22:39;;;;;;;1.8;1;;;;;;;-6.92;69.90332;946.509;;;;
2021/02/13 00:25:23;;;;;;;1.5;1.1;;;;;;;-6.87;69.95703;946.53;;;;
2021/02/13 00:27:49;;;;;;;1.6;1.1;;;;;;;-6.92;69.72949;946.4853;;;;
2021/02/13 00:30:19;;;;;;;1.6;1.1;;;;;;;-6.74;69.25488;946.5247;;;;
2021/02/13 00:32:45;;;;;;;1.3;1.2;;;;;;;-6.96;69.84277;946.4626;;;;
2021/02/13 00:35:17;;;;;;;1.3;1.2;;;;;;;-6.94;69.9668;946.5714;;;;
2021/02/13 00:37:43;;;;;;;2.8;1.2;;;;;;;-7.16;70.73828;946.4782;;;;
2021/02/13 00:40:17;;;;;;;1.4;1.3;;;;;;;-7.17;70.29883;946.5959;;;;
2021/02/13 00:42:44;;;;;;;0.9;0.8;;;;;;;-7.2;70.52637;946.5875;;;;
2021/02/13 00:45:09;;;;;;;1.1;1;;;;;;;-7.04;70.7168;946.6472;;;;
2021/02/13 00:47:34;;;;;;;2;1.4;;;;;;;-7.14;70.24902;946.6358;;;;
2021/02/13 00:50:01;;;;;;;2.4;1.4;;;;;;;-7.05;70.1123;946.6072;;;;
2021/02/13 00:52:26;;;;;;;3;1.4;;;;;;;-7.11;69.95801;946.6344;;;;
2021/02/13 00:54:54;;;;;;;5.3;1.7;;;;;;;-7.23;69.87402;946.6099;;;;
2021/02/13 00:57:19;;;;;;;1.1;1;;;;;;;-7.18;70.50684;946.7115;;;;
2021/02/13 00:59:44;;;;;;;2.1;1.1;;;;;;;-7.29;70.10449;946.7911;;;;
2021/02/13 01:02:12;;;;;;;2.6;1.7;;;;;;;-7.42;71.75684;946.8311;;;;
2021/02/13 01:04:37;;;;;;;1.6;1.4;;;;;;;-7.34;71.52832;946.8645;;;;
2021/02/13 01:07:03;;;;;;;2.7;1.5;;;;;;;-7.15;70.74219;946.8871;;;;
2021/02/13 01:09:28;;;;;;;2.3;1.7;;;;;;;-7.15;70.12891;946.8933;;;;
2021/02/13 01:11:58;;;;;;;2.4;1.7;;;;;;;-7.22;69.78809;946.9042;;;;
2021/02/13 01:14:26;;;;;;;1.5;1.3;;;;;;;-7.15;70.56543;946.9063;;;;
2021/02/13 01:16:55;;;;;;;3.1;2;;;;;;;-7.33;70.74414;946.9035;;;;
2021/02/13 01:19:23;;;;;;;4;2.4;;;;;;;-7.43;70.70508;946.8611;;;;
2021/02/13 01:21:58;;;;;;;2;1.5;;;;;;;-7.33;70.77637;946.9277;;;;
2021/02/13 01:24:26;;;;;;;4.1;1.7;;;;;;;-7.44;71.08496;946.9263;;;;
2021/02/13 01:26:52;;;;;;;2;1.4;;;;;;;-7.54;72.04297;946.9063;;;;
2021/02/13 01:29:22;;;;;;;3.1;1.2;;;;;;;-7.28;71.04688;946.8782;;;;
2021/02/13 01:31:47;;;;;;;1.9;1.2;;;;;;;-7.36;70.81543;946.9523;;;;
2021/02/13 01:34:17;;;;;;;3.1;1.7;;;;;;;-7.23;70.2041;946.9785;;;;
2021/02/13 01:36:47;;;;;;;1.9;1.5;;;;;;;-7.38;70.76855;946.9433;;;;
2021/02/13 01:39:18;;;;;;;4.8;2;;;;;;;-7.28;70.67676;947.005;;;;
2021/02/13 01:41:49;;;;;;;1.8;1.5;;;;;;;-7.43;70.21094;946.938;;;;
2021/02/13 01:44:18;;;;;;;1.1;1;;;;;;;-7.6;70.64258;947.0183;;;;
2021/02/13 01:46:48;;;;;;;3.5;2.1;;;;;;;-7.64;70.38379;946.9444;;;;
2021/02/13 01:49:18;;;;;;;1.8;1.5;;;;;;;-7.88;71.33691;946.9945;;;;
2021/02/13 01:51:45;;;;;;;3.4;2.2;;;;;;;-7.81;71.54785;947.0139;;;;
2021/02/13 01:54:10;;;;;;;1.9;1.8;;;;;;;-7.76;71.8418;946.978;;;;
2021/02/13 01:56:43;;;;;;;2.3;1.4;;;;;;;-7.87;71.68066;947.0114;;;;
2021/02/13 01:59:10;;;;;;;1.7;1.6;;;;;;;-7.72;71.55273;946.9503;;;;
2021/02/13 02:01:43;;;;;;;3.8;1.3;;;;;;;-7.61;71.0332;946.9858;;;;
2021/02/13 02:04:11;;;;;;;3.7;1.8;;;;;;;-7.67;70.59766;947.0276;;;;
2021/02/13 02:06:36;;;;;;;9.1;1.8;;;;;;;-7.68;71.02246;946.9581;;;;
2021/02/13 02:09:05;;;;;;;2.3;1.6;;;;;;;-7.74;70.07324;946.9964;;;;
2021/02/13 02:11:34;;;;;;;2.4;1.5;;;;;;;-7.8;69.85254;947.0295;;;;
2021/02/13 02:14:01;;;;;;;4.3;1.3;;;;;;;-8;70.82617;947.0389;;;;
2021/02/13 02:16:29;;;;;;;3;1.4;;;;;;;-7.95;72.10156;947.0231;;;;
2021/02/13 02:18:56;;;;;;;3.8;1.9;;;;;;;-8.02;72.09082;947.1022;;;;
2021/02/13 02:21:21;;;;;;;1.3;1.2;;;;;;;-7.83;71.30273;946.9811;;;;
2021/02/13 02:23:48;;;;;;;2.5;2;;;;;;;-8.03;71.5957;947.0524;;;;
2021/02/13 02:26:13;;;;;;;2.2;1.8;;;;;;;-8.08;71.69727;947.0688;;;;
2021/02/13 02:28:42;;;;;;;3.2;2;;;;;;;-8.15;71.92578;946.9686;;;;
2021/02/13 02:31:08;;;;;;;3;1.8;;;;;;;-7.96;71.54297;947.0438;;;;
2021/02/13 02:33:33;;;;;;;2.4;1.7;;;;;;;-7.95;71.4668;947.1308;;;;
2021/02/13 02:35:58;;;;;;;2;1.6;;;;;;;-7.89;71.26074;947.0909;;;;
2021/02/13 02:38:23;;;;;;;4.1;1.7;;;;;;;-7.77;71.2373;947.1323;;;;
2021/02/13 02:40:52;;;;;;;1.9;1.4;;;;;;;-7.76;70.65918;947.0389;;;;
2021/02/13 02:43:17;;;;;;;2;1.8;;;;;;;-7.76;70.80273;947.1058;;;;
2021/02/13 02:45:43;;;;;;;6.3;1.8;;;;;;;-7.92;71.06836;947.1238;;;;
2021/02/13 02:48:08;;;;;;;3.6;1.9;;;;;;;-8;71.35059;947.1533;;;;
2021/02/13 02:50:33;;;;;;;2.2;1.9;;;;;;;-7.91;71.23535;947.1359;;;;
2021/02/13 02:53:03;;;;;;;1.9;1.4;;;;;;;-7.92;71.17773;947.1392;;;;
2021/02/13 02:55:28;;;;;;;1.6;1.5;;;;;;;-8.09;71.53223;947.1503;;;;
2021/02/13 02:57:54;;;;;;;1.8;1.7;;;;;;;-8.07;71.30566;947.1764;;;;
2021/02/13 03:00:24;;;;;;;1.5;1.4;;;;;;;-8.09;71.52148;947.2512;;;;
2021/02/13 03:02:53;;;;;;;1.9;1.3;;;;;;;-8.01;71.3916;947.2685;;;;
2021/02/13 03:05:18;;;;;;;3.4;1.4;;;;;;;-8.01;71.85254;947.3024;;;;
2021/02/13 03:07:46;;;;;;;1.8;1.5;;;;;;;-8;72.16895;947.3321;;;;
2021/02/13 03:10:11;;;;;;;1.7;1.6;;;;;;;-8.23;72.99219;947.298;;;;
2021/02/13 03:12:42;;;;;;;1;1;;;;;;;-8.06;71.9082;947.2664;;;;
2021/02/13 03:15:07;;;;;;;1.6;1.3;;;;;;;-8.04;71.8457;947.2585;;;;
2021/02/13 03:17:33;;;;;;;2.1;1.2;;;;;;;-8.17;71.8125;947.2869;;;;
2021/02/13 03:20:09;;;;;;;1.6;1.5;;;;;;;-8.33;72.30859;947.389;;;;
2021/02/13 03:22:40;;;;;;;4.2;1.6;;;;;;;-8.24;72.25879;947.4052;;;;
2021/02/13 03:25:10;;;;;;;3.3;1.9;;;;;;;-8.24;71.93164;947.382;;;;
2021/02/13 03:27:36;;;;;;;5.3;1.5;;;;;;;-8.13;72.12695;947.437;;;;
2021/02/13 03:30:07;;;;;;;3.7;1.5;;;;;;;-8.14;71.57715;947.4752;;;;
2021/02/13 03:32:32;;;;;;;3.1;2.1;;;;;;;-8.22;71.69629;947.4838;;;;
2021/02/13 03:35:04;;;;;;;1.8;1.7;;;;;;;-8.16;71.23535;947.5305;;;;
2021/02/13 03:37:30;;;;;;;4.4;1.5;;;;;;;-8.11;71.50586;947.5517;;;;
2021/02/13 03:40:00;;;;;;;2.8;1.9;;;;;;;-8.06;71.58008;947.5415;;;;
2021/02/13 03:42:29;;;;;;;2.2;1.6;;;;;;;-8.03;71.09375;947.5114;;;;
2021/02/13 03:44:58;;;;;;;2.4;1.7;;;;;;;-8.03;71.49902;947.3572;;;;
2021/02/13 03:47:25;;;;;;;2.4;2;;;;;;;-8.2;71.48047;947.5369;;;;
2021/02/13 03:49:55;;;;;;;2;1.8;;;;;;;-8.11;71.1123;947.5784;;;;
2021/02/13 03:52:23;;;;;;;2.7;1.7;;;;;;;-8.22;71.65234;947.49;;;;
2021/02/13 03:54:54;;;;;;;3.1;1.4;;;;;;;-8.3;72.40234;947.5519;;;;
2021/02/13 03:57:21;;;;;;;3.8;2.1;;;;;;;-8.37;72.23535;947.5868;;;;
2021/02/13 03:59:46;;;;;;;4.4;1.5;;;;;;;-8.19;71.92969;947.5503;;;;
2021/02/13 04:02:30;;;;;;;2;1.5;;;;;;;-8.15;71.19336;947.6036;;;;
2021/02/13 04:05:00;;;;;;;2.1;1.6;;;;;;;-8.13;71.44824;947.5884;;;;
2021/02/13 04:07:27;;;;;;;2.8;1.6;;;;;;;-8.07;71.04395;947.6239;;;;
2021/02/13 04:09:58;;;;;;;2.2;1.3;;;;;;;-8.01;70.80176;947.6914;;;;
2021/02/13 04:12:26;;;;;;;2.2;1.8;;;;;;;-7.88;70.48438;947.6746;;;;
2021/02/13 04:14:56;;;;;;;1.4;1.3;;;;;;;-7.89;70.2002;947.6386;;;;
2021/02/13 04:17:21;;;;;;;3;1.7;;;;;;;-8.09;71.28125;947.7137;;;;
2021/02/13 04:19:52;;;;;;;1.5;1.2;;;;;;;-8.22;72.09863;947.7629;;;;
2021/02/13 04:22:21;;;;;;;5.6;1.9;;;;;;;-8.5;72.70605;947.7701;;;;
2021/02/13 04:24:51;;;;;;;3.3;2.1;;;;;;;-8.61;72.77441;947.7214;;;;
2021/02/13 04:27:20;;;;;;;2.2;2;;;;;;;-8.36;72.97949;947.8173;;;;
2021/02/13 04:29:51;;;;;;;8.1;2.5;;;;;;;-8.48;73.08008;947.823;;;;
2021/02/13 04:32:16;;;;;;;3.3;1.4;;;;;;;-8.52;73.67285;947.9108;;;;
2021/02/13 04:34:47;;;;;;;1.6;1.4;;;;;;;-8.58;73.42285;947.94;;;;
2021/02/13 04:37:13;;;;;;;2;1.4;;;;;;;-8.54;73.88672;947.8965;;;;
2021/02/13 04:39:45;;;;;;;2.2;1.6;;;;;;;-8.51;73.63086;948.01;;;;
2021/02/13 04:42:11;;;;;;;8.6;2.2;;;;;;;-8.64;73.66113;948.0018;;;;
2021/02/13 04:44:41;;;;;;;5;1.3;;;;;;;-8.64;74.20801;948.0147;;;;
2021/02/13 04:47:06;;;;;;;4;1.7;;;;;;;-8.49;73.67969;947.9266;;;;
2021/02/13 04:49:32;;;;;;;2.1;1.9;;;;;;;-8.52;73.57422;948.0019;;;;
2021/02/13 04:51:56;;;;;;;3;1.8;;;;;;;-8.5;73.6543;948.063;;;;
2021/02/13 04:54:23;;;;;;;4.9;2.6;;;;;;;-8.62;73.5791;948.033;;;;
2021/02/13 04:56:47;;;;;;;4.5;1.8;;;;;;;-8.62;73.60059;948.0336;;;;
2021/02/13 04:59:14;;;;;;;3.7;2.5;;;;;;;-8.63;73.37891;948.0527;;;;
2021/02/13 05:01:39;;;;;;;2.1;1.3;;;;;;;-8.72;73.9082;948.0084;;;;
2021/02/13 05:04:06;;;;;;;1.9;1.2;;;;;;;-8.53;73.19141;948.093;;;;
2021/02/13 05:06:32;;;;;;;1.1;1;;;;;;;-8.53;72.4375;948.1692;;;;
2021/02/13 05:08:57;;;;;;;1.5;1.4;;;;;;;-8.66;72.44824;948.2263;;;;
2021/02/13 05:11:22;;;;;;;2.8;1.7;;;;;;;-8.73;72.39258;948.1701;;;;
2021/02/13 05:13:51;;;;;;;1.7;1.6;;;;;;;-8.91;72.6875;948.1937;;;;
2021/02/13 05:16:19;;;;;;;4.1;1.4;;;;;;;-8.78;72.56836;948.2089;;;;
2021/02/13 05:18:44;;;;;;;1.9;1.7;;;;;;;-8.87;73.55371;948.2445;;;;
2021/02/13 05:21:11;;;;;;;1.9;1.8;;;;;;;-9.03;74.71484;948.2587;;;;
2021/02/13 05:23:41;;;;;;;2.5;1.6;;;;;;;-9;74.71973;948.2739;;;;
2021/02/13 05:26:12;;;;;;;3.3;2;;;;;;;-8.92;74.49414;948.3024;;;;
2021/02/13 05:28:44;;;;;;;1.8;1.4;;;;;;;-8.88;73.82617;948.3016;;;;
2021/02/13 05:31:20;;;;;;;3.6;2.5;;;;;;;-9.13;74.39355;948.3224;;;;
2021/02/13 05:33:53;;;;;;;5.4;2.6;;;;;;;-9.35;75.21289;948.3552;;;;
2021/02/13 05:36:24;;;;;;;4.1;2.2;;;;;;;-9.24;75.47266;948.3425;;;;
2021/02/13 05:38:51;;;;;;;3.1;1.7;;;;;;;-9.37;75.58008;948.3398;;;;
2021/02/13 05:41:16;;;;;;;3.3;2.1;;;;;;;-9.24;75.02734;948.4031;;;;
2021/02/13 05:43:47;;;;;;;2.8;2.4;;;;;;;-9.15;74.68262;948.4562;;;;
2021/02/13 05:46:12;;;;;;;1.8;1.6;;;;;;;-9.1;73.87305;948.4807;;;;
2021/02/13 05:48:42;;;;;;;1.7;1.5;;;;;;;-9.17;74.31836;948.4881;;;;
2021/02/13 05:51:13;;;;;;;1.4;1.3;;;;;;;-9.41;74.7334;948.4897;;;;
2021/02/13 05:53:39;;;;;;;4;2.2;;;;;;;-9.35;74.86426;948.5201;;;;
2021/02/13 05:56:07;;;;;;;3.1;1.7;;;;;;;-9.2;74.80566;948.5072;;;;
2021/02/13 05:58:39;;;;;;;2.1;1.8;;;;;;;-9.37;74.2627;948.5428;;;;
2021/02/13 06:01:10;;;;;;;1.7;1.6;;;;;;;-9.53;73.79785;948.6404;;;;
2021/02/13 06:03:44;;;;;;;2.4;1.8;;;;;;;-9.59;75.27734;948.6848;;;;
2021/02/13 06:06:18;;;;;;;2.3;1.6;;;;;;;-9.56;74.94531;948.6406;;;;
2021/02/13 06:08:45;;;;;;;3.4;2.1;;;;;;;-9.69;74.09473;948.7082;;;;
2021/02/13 06:11:10;;;;;;;5.5;1.9;;;;;;;-9.73;73.75293;948.831;;;;
2021/02/13 06:13:39;;;;;;;2.1;1.7;;;;;;;-9.8;73.6416;948.9009;;;;
2021/02/13 06:16:22;;;;;;;4.8;1.9;;;;;;;-9.8;73.43457;948.8845;;;;
2021/02/13 06:18:49;;;;;;;9.3;1.8;;;;;;;-9.81;74.61816;948.7783;;;;
2021/02/13 06:21:21;;;;;;;4.9;2.1;;;;;;;-9.96;75.50488;948.7609;;;;
2021/02/13 06:23:46;;;;;;;3.8;1.7;;;;;;;-9.8;75.32617;948.8439;;;;
2021/02/13 06:26:11;;;;;;;4.2;2.3;;;;;;;-9.9;74.57031;948.8856;;;;
2021/02/13 06:28:40;;;;;;;2.8;1.9;;;;;;;-10.05;75.54297;948.9875;;;;
2021/02/13 06:31:05;;;;;;;1.2;1;;;;;;;-10.08;76.72363;948.9905;;;;
2021/02/13 06:33:30;;;;;;;2.5;1.8;;;;;;;-9.97;76.14355;949.0243;;;;
2021/02/13 06:36:01;;;;;;;2.5;2.2;;;;;;;-9.98;75.36035;949.0233;;;;
2021/02/13 06:38:33;;;;;;;2.3;2;;;;;;;-10.09;75.17578;949.0176;;;;
2021/02/13 06:41:04;;;;;;;2.6;2;;;;;;;-9.99;74.65039;948.9201;;;;
2021/02/13 06:43:34;;;;;;;2;1.8;;;;;;;-10.02;74.63477;949.0034;;;;
2021/02/13 06:46:00;;;;;;;3.7;2;;;;;;;-9.98;74.53418;949.0413;;;;
2021/02/13 06:48:25;;;;;;;2.9;2.2;;;;;;;-10.01;74.81152;949.1244;;;;
2021/02/13 06:50:55;;;;;;;2.1;1.6;;;;;;;-10.06;74.13867;949.1471;;;;
2021/02/13 06:53:24;;;;;;;4.1;2.5;;;;;;;-10.18;74.32422;949.1541;;;;
2021/02/13 06:55:49;;;;;;;1.4;1.3;;;;;;;-10.21;74.24023;949.1797;;;;
2021/02/13 06:58:20;;;;;;;3.6;2.2;;;;;;;-10.39;74.88281;949.2241;;;;
2021/02/13 07:00:50;;;;;;;3.4;2;;;;;;;-10.21;74.91406;949.2645;;;;
2021/02/13 07:03:18;;;;;;;3.6;1.5;;;;;;;-10.1;75.13086;949.2477;;;;
2021/02/13 07:05:43;;;;;;;5.3;1.9;;;;;;;-10.19;75.09277;949.2902;;;;
2021/02/13 07:08:09;;;;;;;1.8;1.6;;;;;;;-10.03;74.39355;949.2411;;;;
2021/02/13 07:10:38;;;;;;;5.7;2.5;;;;;;;-10.19;75.33203;949.2891;;;;
2021/02/13 07:13:04;;;;;;;3.8;1.8;;;;;;;-10.07;76.27734;949.2236;;;;
2021/02/13 07:15:39;;;;;;;3.4;2.4;;;;;;;-9.2;74.69629;949.3031;;;;
2021/02/13 07:18:06;;;;;;;4.9;2.3;;;;;;;-8.85;72.00977;949.2743;;;;
2021/02/13 07:20:31;;;;;;;3.1;2.4;;;;;;;-8.78;70.79004;949.3233;;;;
2021/02/13 07:23:05;;;;;;;4.6;2.3;;;;;;;-8.46;69.46875;949.3728;;;;
2021/02/13 07:25:39;;;;;;;5.1;2.3;;;;;;;-8.05;67.91992;949.3906;;;;
2021/02/13 07:28:04;;;;;;;2.3;1.6;;;;;;;-7.63;66.31641;949.3575;;;;
2021/02/13 07:30:41;;;;;;;4.7;3;;;;;;;-7.66;65.33984;949.4267;;;;
2021/02/13 07:33:11;;;;;;;5.7;2.1;;;;;;;-7.26;65.08398;949.4231;;;;
2021/02/13 07:35:38;;;;;;;3.2;1.9;;;;;;;-6.81;62.73242;949.4375;;;;
2021/02/13 07:38:07;;;;;;;3.7;2.3;;;;;;;-6.91;62.42188;949.4288;;;;
2021/02/13 07:40:39;;;;;;;4.9;2.7;;;;;;;-6.34;61.81738;949.3778;;;;
2021/02/13 07:43:06;;;;;;;2.1;1.6;;;;;;;-5.53;58.8584;949.3127;;;;
2021/02/13 07:45:36;;;;;;;4;2;;;;;;;-5.04;56.25293;949.3131;;;;
2021/02/13 07:48:07;;;;;;;4.9;1.8;;;;;;;-5.32;56.7998;949.2394;;;;
2021/02/13 07:50:32;;;;;;;4.2;2.2;;;;;;;-4.6;55.14453;949.3119;;;;
2021/02/13 07:53:08;;;;;;;4.3;2;;;;;;;-4.62;54.58008;949.356;;;;
2021/02/13 07:55:34;;;;;;;3.8;2.2;;;;;;;-4.59;54.96973;949.3858;;;;
2021/02/13 07:58:10;;;;;;;4;2.1;;;;;;;-4.25;53.00684;949.4225;;;;
2021/02/13 08:00:41;;;;;;;5;2.5;;;;;;;-3.91;52.8623;949.4524;;;;
2021/02/13 08:03:06;;;;;;;2.9;2.1;;;;;;;-3.2;51.15137;949.3997;;;;
2021/02/13 08:05:44;;;;;;;4.3;2.8;;;;;;;-2.67;49.52148;949.3834;;;;
2021/02/13 08:08:09;;;;;;;4.2;2.6;;;;;;;-2.38;48.77051;949.3762;;;;
2021/02/13 08:10:44;;;;;;;4.2;2.3;;;;;;;-2.69;46.97461;949.4331;;;;
2021/02/13 08:13:14;;;;;;;6;2.7;;;;;;;-2.32;47.12695;949.4514;;;;
2021/02/13 08:15:58;;;;;;;2.8;2.1;;;;;;;-0.86;44.12305;949.2762;;;;
2021/02/13 08:18:24;;;;;;;3.6;2.5;;;;;;;0.41;40.90918;949.3304;;;;
2021/02/13 08:20:53;;;;;;;7.2;3.6;;;;;;;1.45;39.01074;949.2536;;;;
2021/02/13 08:23:25;;;;;;;6.1;2.6;;;;;;;2.22;37.2002;949.2715;;;;
2021/02/13 08:25:54;;;;;;;4.5;2.9;;;;;;;2.72;36.14453;949.272;;;;
2021/02/13 08:28:26;;;;;;;4.1;2.8;;;;;;;3.49;33.62695;949.2725;;;;
2021/02/13 08:30:56;;;;;;;5.9;2.6;;;;;;;3.45;33.34375;949.2767;;;;
2021/02/13 08:33:28;;;;;;;4.5;2.6;;;;;;;3.9;33.49121;949.2161;;;;
2021/02/13 08:36:00;;;;;;;3.3;2;;;;;;;4.65;31.24121;949.3772;;;;
2021/02/13 08:38:24;;;;;;;1.6;1.3;;;;;;;3.36;32.41504;949.3848;;;;
2021/02/13 08:40:54;;;;;;;2.7;1.5;;;;;;;3.1;33.68555;949.4174;;;;
2021/02/13 08:43:25;;;;;;;2.2;1.7;;;;;;;2.67;34.31348;949.4063;;;;
2021/02/13 08:45:49;;;;;;;2.7;2.2;;;;;;;0.77;37.17285;949.5179;;;;
2021/02/13 08:48:20;;;;;;;1.8;1.4;;;;;;;-0.79;40.58301;949.5338;;;;
2021/02/13 08:50:53;;;;;;;2.6;1.2;;;;;;;-1.61;42.74609;949.6188;;;;
2021/02/13 08:53:22;;;;;;;6.6;2.6;;;;;;;-2.2;44.38086;949.6434;;;;
2021/02/13 08:55:53;;;;;;;5.9;3.2;;;;;;;-3.58;48.07813;949.7006;;;;
2021/02/13 08:58:23;;;;;;;10.7;3.5;;;;;;;-3.86;50.25391;949.6467;;;;
2021/02/13 09:00:57;;;;;;;6.2;2.4;;;;;;;-4.08;50.16113;949.5198;;;;
2021/02/13 09:03:24;;;;;;;5.6;3;;;;;;;-4.32;51.40039;949.6877;;;;
2021/02/13 09:05:49;;;;;;;9.3;3.9;;;;;;;-4.8;53.54395;949.6462;;;;
2021/02/13 09:08:19;;;;;;;7.2;2.8;;;;;;;-4.67;53.69238;949.6428;;;;
2021/02/13 09:10:44;;;;;;;2.7;1.5;;;;;;;-4.77;53.34863;949.6295;;;;
2021/02/13 09:13:12;;;;;;;6.5;2.6;;;;;;;-4.62;53.04883;949.631;;;;
2021/02/13 09:15:58;;;;;;;3.4;2;;;;;;;-4.93;54.43066;949.6936;;;;
2021/02/13 09:18:28;;;;;;;1.7;1.6;;;;;;;-4.62;53.65527;949.6378;;;;
2021/02/13 09:20:58;;;;;;;4.9;2.4;;;;;;;-4.65;54.14648;949.6291;;;;
2021/02/13 09:23:23;;;;;;;2.7;2;;;;;;;-4.13;52.86816;949.6904;;;;
2021/02/13 09:25:52;;;;;;;2.6;2.1;;;;;;;-3.71;51.43164;949.6973;;;;
2021/02/13 09:28:25;;;;;;;6.5;2.5;;;;;;;-3.16;50.09375;949.6914;;;;
2021/02/13 09:30:53;;;;;;;6.9;2.4;;;;;;;-3.5;50.36328;949.7776;;;;
2021/02/13 09:33:22;;;;;;;7.1;2.8;;;;;;;-3.24;49.57715;949.7267;;;;
2021/02/13 09:35:57;;;;;;;5;3.5;;;;;;;-3.43;49.8291;949.7476;;;;
2021/02/13 09:38:26;;;;;;;4.2;3;;;;;;;-3.04;49.44434;949.6747;;;;
2021/02/13 09:41:00;;;;;;;7.9;3.4;;;;;;;-3.19;49.87012;949.7612;;;;
2021/02/13 09:43:32;;;;;;;6.6;2.9;;;;;;;-3.24;50.18359;949.7575;;;;
2021/02/13 09:45:58;;;;;;;3.2;2.2;;;;;;;-3.62;51.10059;949.7964;;;;
2021/02/13 09:48:36;;;;;;;3.7;2.7;;;;;;;-3.34;50.7793;949.7744;;;;
2021/02/13 09:51:04;;;;;;;3.3;2;;;;;;;-3.94;51.85547;949.8171;;;;
2021/02/13 09:53:33;;;;;;;4.5;2.3;;;;;;;-3.67;51.12793;949.8027;;;;
2021/02/13 09:56:04;;;;;;;2.1;1.6;;;;;;;-3.83;51.42773;949.7933;;;;
2021/02/13 09:58:32;;;;;;;3.4;2.4;;;;;;;-3.41;51.20313;949.7424;;;;
2021/02/13 10:01:04;;;;;;;4.2;2.6;;;;;;;-3.17;50.22559;949.7422;;;;
2021/02/13 10:03:40;;;;;;;2.3;1.9;;;;;;;-2.97;49.99609;949.7828;;;;
2021/02/13 10:06:09;;;;;;;5.8;2;;;;;;;-3.19;50.12402;949.8516;;;;
2021/02/13 10:08:40;;;;;;;4.5;2.1;;;;;;;-2.96;50.07422;949.8687;;;;
2021/02/13 10:11:13;;;;;;;3.5;2.1;;;;;;;-2.79;49.19922;949.88;;;;
2021/02/13 10:13:45;;;;;;;3.2;2.1;;;;;;;-2.17;49.24902;949.8538;;;;
2021/02/13 10:16:38;;;;;;;3.1;2.3;;;;;;;-2.08;47.65234;949.8749;;;;
2021/02/13 10:19:13;;;;;;;2;1.6;;;;;;;-2.01;47.81543;949.8541;;;;
2021/02/13 10:21:39;;;;;;;6.7;2.4;;;;;;;-2.98;49.98242;949.981;;;;
2021/02/13 10:24:10;;;;;;;3.9;2.8;;;;;;;-3.78;52.0625;949.9442;;;;
2021/02/13 10:26:36;;;;;;;3;1.8;;;;;;;-4.2;53.96289;949.9789;;;;
2021/02/13 10:29:02;;;;;;;2.4;1.3;;;;;;;-4.89;56.95605;950.0005;;;;
2021/02/13 10:31:31;;;;;;;2.6;1.9;;;;;;;-4.81;56.16211;949.9796;;;;
2021/02/13 10:33:58;;;;;;;2.2;1.7;;;;;;;-4.78;57.30273;950.0248;;;;
2021/02/13 10:36:34;;;;;;;2.8;1.7;;;;;;;-4.23;57.87207;950.0229;;;;
2021/02/13 10:39:02;;;;;;;2.2;1.7;;;;;;;-3.87;55.90332;949.9872;;;;
2021/02/13 10:41:38;;;;;;;1.8;1.5;;;;;;;-3.5;53.74414;950.0552;;;;
2021/02/13 10:44:11;;;;;;;2.6;1.9;;;;;;;-3.03;53.05078;950.0375;;;;
2021/02/13 10:46:46;;;;;;;5;2;;;;;;;-2.7;51.54395;949.9885;;;;
2021/02/13 10:49:20;;;;;;;3.6;2.2;;;;;;;-2.76;50.45215;950.0683;;;;
2021/02/13 10:51:51;;;;;;;2.5;1.9;;;;;;;-3.08;51.89648;950.1019;;;;
2021/02/13 10:54:21;;;;;;;2.3;1.9;;;;;;;-2.82;51.45215;950.0919;;;;
2021/02/13 10:56:46;;;;;;;2.3;1.8;;;;;;;-2.81;51.0332;950.0276;;;;
2021/02/13 10:59:11;;;;;;;2.9;2.3;;;;;;;-2.66;51.57129;950.0363;;;;
2021/02/13 11:01:41;;;;;;;6.8;2.6;;;;;;;-1.68;56.85059;949.9678;;;;
2021/02/13 11:04:06;;;;;;;1.4;1.3;;;;;;;-1.06;50.8125;949.8467;;;;
2021/02/13 11:06:31;;;;;;;3.7;2;;;;;;;-0.86;48.28027;949.9604;;;;
2021/02/13 11:08:58;;;;;;;3;1.6;;;;;;;-0.65;47.64844;949.8731;;;;
2021/02/13 11:11:24;;;;;;;4.2;2.7;;;;;;;-0.48;48.36719;949.8419;;;;
2021/02/13 11:13:55;;;;;;;2.9;1.8;;;;;;;0.64;46.64551;949.9064;;;;
2021/02/13 11:16:31;;;;;;;3;2;;;;;;;0.18;43.00488;949.7839;;;;
2021/02/13 11:19:06;;;;;;;4.6;2.6;;;;;;;0.72;43.37305;949.8495;;;;
2021/02/13 11:21:34;;;;;;;2.2;1.8;;;;;;;1.25;40.7334;949.8226;;;;
2021/02/13 11:23:59;;;;;;;2.3;1.9;;;;;;;1.24;40.4541;949.7642;;;;
2021/02/13 11:26:39;;;;;;;8.7;2;;;;;;;2.05;39.14453;949.7152;;;;
2021/02/13 11:29:14;;;;;;;3.1;1.7;;;;;;;2.12;38.0752;949.7019;;;;
2021/02/13 11:31:44;;;;;;;4.3;1.9;;;;;;;1.5;38.75684;949.7389;;;;
2021/02/13 11:34:12;;;;;;;4.9;1.8;;;;;;;1.77;40.05664;949.6928;;;;
2021/02/13 11:36:47;;;;;;;2;1.5;;;;;;;2.24;37.58203;949.7305;;;;
2021/02/13 11:39:17;;;;;;;4.2;2.1;;;;;;;1.72;38.68848;949.7937;;;;
2021/02/13 11:41:46;;;;;;;3.5;2;;;;;;;2.73;37.25586;949.7401;;;;
2021/02/13 11:44:20;;;;;;;6;2;;;;;;;2.73;37.39063;949.6674;;;;
2021/02/13 11:46:55;;;;;;;3.5;1.4;;;;;;;2.59;38.11816;949.7051;;;;
2021/02/13 11:49:22;;;;;;;3.2;1.9;;;;;;;3.76;36.18848;949.6614;;;;
2021/02/13 11:51:53;;;;;;;2.4;1.6;;;;;;;5.23;32.89551;949.6214;;;;
2021/02/13 11:54:20;;;;;;;3.7;1.3;;;;;;;5.5;32.01465;949.6412;;;;
2021/02/13 11:56:49;;;;;;;3.6;1.3;;;;;;;6.2;31.08301;949.6249;;;;
2021/02/13 11:59:18;;;;;;;3.4;1;;;;;;;5.7;30.89941;949.6322;;;;
2021/02/13 12:01:52;;;;;;;1.8;1.2;;;;;;;6.56;29.70703;949.6046;;;;
2021/02/13 12:04:23;;;;;;;2.5;1.6;;;;;;;5.91;30.75684;949.5912;;;;
2021/02/13 12:06:57;;;;;;;2.8;1.4;;;;;;;7.18;29.58008;949.5664;;;;
2021/02/13 12:09:29;;;;;;;2;0.9;;;;;;;5.5;30.1748;949.5733;;;;
2021/02/13 12:12:04;;;;;;;1.3;1;;;;;;;4.11;32.92285;949.6268;;;;
2021/02/13 12:14:37;;;;;;;2.2;1.4;;;;;;;4.9;32.38672;949.6976;;;;
2021/02/13 12:17:22;;;;;;;3.9;1.6;;;;;;;5.3;31.9541;949.6652;;;;
2021/02/13 12:20:00;;;;;;;1.2;1.1;;;;;;;5.16;31.8877;949.6678;;;;
2021/02/13 12:22:32;;;;;;;2.3;1.4;;;;;;;5.8;31.41504;949.5941;;;;
2021/02/13 12:25:12;;;;;;;1.5;1;;;;;;;7.64;28.48926;949.4236;;;;
2021/02/13 12:27:45;;;;;;;1.9;1.3;;;;;;;6.14;29.42871;949.4411;;;;
2021/02/13 12:30:19;;;;;;;1.4;1.1;;;;;;;6.27;29.89063;949.5461;;;;
2021/02/13 12:32:45;;;;;;;3.9;1;;;;;;;6.32;30.0752;949.5594;;;;
2021/02/13 12:35:18;;;;;;;1.7;1.1;;;;;;;6.06;30.28223;949.5222;;;;
2021/02/13 12:37:46;;;;;;;2.7;1;;;;;;;4.22;33.56152;949.6178;;;;
2021/02/13 12:40:11;;;;;;;2.1;1;;;;;;;4.05;33.49121;949.5865;;;;
2021/02/13 12:42:42;;;;;;;1.7;1;;;;;;;4.44;33.25195;949.6179;;;;
2021/02/13 12:45:19;;;;;;;2.2;1.5;;;;;;;4.39;34.23828;949.6175;;;;
2021/02/13 12:47:46;;;;;;;2.6;1.2;;;;;;;5.51;31.72168;949.6263;;;;
2021/02/13 12:50:25;;;;;;;6.4;1.6;;;;;;;4.81;32.27832;949.589;;;;
2021/02/13 12:52:47;;;;;;;1.8;1.4;;;;;;;4.39;34.28418;949.5844;;;;
2021/02/13 12:55:13;;;;;;;1.6;1.2;;;;;;;3.66;34.93262;949.574;;;;
2021/02/13 12:57:40;;;;;;;1.4;1.2;;;;;;;3.66;35.51758;949.5545;;;;
2021/02/13 13:00:18;;;;;;;2.9;1.7;;;;;;;3.17;35.59961;949.5726;;;;
2021/02/13 13:02:48;;;;;;;3.4;1.4;;;;;;;2.69;37.24023;949.5386;;;;
2021/02/13 13:05:19;;;;;;;1.4;1.3;;;;;;;4.21;34.22461;949.5627;;;;
2021/02/13 13:07:44;;;;;;;1.2;1.1;;;;;;;4.35;33.89648;949.5136;;;;
2021/02/13 13:10:16;;;;;;;2.1;1.2;;;;;;;4.08;34.66406;949.5165;;;;
2021/02/13 13:12:39;;;;;;;1.1;1;;;;;;;3.27;35.94531;949.4683;;;;
2021/02/13 13:15:10;;;;;;;1.5;1;;;;;;;3.28;36.90039;949.5366;;;;
2021/02/13 13:17:39;;;;;;;2.1;1.2;;;;;;;3.4;35.54004;949.5073;;;;
2021/02/13 13:20:09;;;;;;;1.3;1;;;;;;;4.53;34.18164;949.5887;;;;
2021/02/13 13:22:34;;;;;;;1.3;1.2;;;;;;;4.5;33.96582;949.5383;;;;
2021/02/13 13:25:00;;;;;;;1.7;1.1;;;;;;;5.78;32.70117;949.5726;;;;
2021/02/13 13:27:25;;;;;;;1.4;1.2;;;;;;;4.79;33.65137;949.5356;;;;
2021/02/13 13:29:53;;;;;;;6.7;1.1;;;;;;;4.92;33.07617;949.6583;;;;
2021/02/13 13:32:18;;;;;;;2.4;1.6;;;;;;;4.43;33.64551;949.6136;;;;
2021/02/13 13:34:47;;;;;;;4.1;1.7;;;;;;;4.3;34.27539;949.6176;;;;
2021/02/13 13:37:12;;;;;;;3.1;1.5;;;;;;;4.33;33.89648;949.5892;;;;
2021/02/13 13:39:37;;;;;;;1.8;1;;;;;;;4.08;35.10156;949.6376;;;;
2021/02/13 13:42:04;;;;;;;1.4;1.3;;;;;;;3.4;35.79883;949.683;;;;
2021/02/13 13:44:29;;;;;;;1.4;1;;;;;;;3.56;35.53027;949.7416;;;;
2021/02/13 13:46:56;;;;;;;2.8;1.9;;;;;;;3.76;35.94141;949.7802;;;;
2021/02/13 13:49:21;;;;;;;1.6;1.1;;;;;;;4.79;34.14648;949.8093;;;;
2021/02/13 13:51:48;;;;;;;1.3;0.9;;;;;;;4.53;34.27246;949.8308;;;;
2021/02/13 13:54:14;;;;;;;3.7;2;;;;;;;5.32;33.07227;949.795;;;;
2021/02/13 13:56:41;;;;;;;2;1.6;;;;;;;5.18;32.09277;949.785;;;;
2021/02/13 13:59:06;;;;;;;2.7;1.3;;;;;;;4.97;34.4209;949.8035;;;;
2021/02/13 14:01:34;;;;;;;1.1;1;;;;;;;5.38;32.52441;949.7932;;;;
2021/02/13 14:03:59;;;;;;;3.7;1.8;;;;;;;5.12;33.7666;949.8883;;;;
2021/02/13 14:06:27;;;;;;;1.3;1.1;;;;;;;5.91;32.31641;949.7913;;;;
2021/02/13 14:08:52;;;;;;;1.3;0.9;;;;;;;7.1;30.48047;949.7089;;;;
2021/02/13 14:11:27;;;;;;;1.6;1.5;;;;;;;4.79;33.07617;949.7328;;;;
2021/02/13 14:13:55;;;;;;;1.7;1.5;;;;;;;3.5;35.9082;949.796;;;;
2021/02/13 14:16:25;;;;;;;1.9;1.2;;;;;;;4.46;34.08594;949.8057;;;;
2021/02/13 14:18:55;;;;;;;3.6;1.3;;;;;;;3.53;35.22461;949.7673;;;;
2021/02/13 14:21:20;;;;;;;1.1;0.9;;;;;;;4.23;35.25;949.8971;;;;
2021/02/13 14:23:51;;;;;;;2.6;1.2;;;;;;;4.8;33.18945;949.8956;;;;
2021/02/13 14:26:22;;;;;;;1.5;1.2;;;;;;;3.44;36.23926;949.9482;;;;
2021/02/13 14:28:52;;;;;;;2.6;1.7;;;;;;;3.05;38.13574;949.9995;;;;
2021/02/13 14:31:17;;;;;;;3.2;1.5;;;;;;;4.37;34.93555;949.9431;;;;
2021/02/13 14:33:48;;;;;;;1.7;1.3;;;;;;;3.91;34.41406;950.0408;;;;
2021/02/13 14:36:13;;;;;;;2;1.3;;;;;;;4.12;34.7002;950.1852;;;;
2021/02/13 14:38:43;;;;;;;1.7;1.5;;;;;;;3.13;36.19141;950.1961;;;;
2021/02/13 14:41:12;;;;;;;1.8;1.2;;;;;;;4.08;35.51855;950.1564;;;;